<?xml version="1.0" encoding="UTF-8" standalone="no" ?>
<gpx xmlns="http://www.topografix.com/GPX/1/1" xmlns:xsi="http://www.w3.org/2001/XMLSchema-instance" xsi:schemaLocation="http://www.topografix.com/GPX/1/1 http://www.topografix.com/GPX/1/1/gpx.xsd" version="1.1" creator="VisuGPX - https://www.visugpx.com">
  <metadata>
    <name>Cordemais_NaturalistesErduriereBriqueterie_8-18km</name>
    <desc><![CDATA[Gnerando idor: 7354627_9681199]]></desc>
  </metadata>
  <trk>
    <name><![CDATA[Coueron_ErduriereBriqueterie_8kmrie-9681199]]></name>
    <extensions>
      <line xmlns="http://www.topografix.com/GPX/gpx_style/0/2">
        <color>0000FF</color>
        <width>4</width>
      </line>
    </extensions>
    <trkseg>
      <trkpt lat="47.23409" lon="-1.72096">
        <ele>16</ele>
        <time>2023-11-01T14:58:20Z</time>
      </trkpt>
      <trkpt lat="47.23403" lon="-1.72035">
        <ele>17</ele>
        <time>2023-11-01T14:59:16Z</time>
      </trkpt>
      <trkpt lat="47.23398" lon="-1.7196">
        <ele>18</ele>
        <time>2023-11-01T15:00:24Z</time>
      </trkpt>
      <trkpt lat="47.23391" lon="-1.71936">
        <ele>19</ele>
        <time>2023-11-01T15:00:48Z</time>
      </trkpt>
      <trkpt lat="47.23397" lon="-1.71861">
        <ele>20</ele>
        <time>2023-11-01T15:01:56Z</time>
      </trkpt>
      <trkpt lat="47.23427" lon="-1.71799">
        <ele>22</ele>
        <time>2023-11-01T15:03:05Z</time>
      </trkpt>
      <trkpt lat="47.23465" lon="-1.71641">
        <ele>25</ele>
        <time>2023-11-01T15:05:37Z</time>
      </trkpt>
      <trkpt lat="47.23519" lon="-1.71553">
        <ele>27</ele>
        <time>2023-11-01T15:07:25Z</time>
      </trkpt>
      <trkpt lat="47.2361" lon="-1.71503">
        <ele>31</ele>
        <time>2023-11-01T15:09:34Z</time>
      </trkpt>
      <trkpt lat="47.23699" lon="-1.71484">
        <ele>30</ele>
        <time>2023-11-01T15:11:34Z</time>
      </trkpt>
      <trkpt lat="47.2378" lon="-1.71464">
        <ele>27</ele>
        <time>2023-11-01T15:13:24Z</time>
      </trkpt>
      <trkpt lat="47.2385" lon="-1.71419">
        <ele>26</ele>
        <time>2023-11-01T15:15:06Z</time>
      </trkpt>
      <trkpt lat="47.23862" lon="-1.71352">
        <ele>27</ele>
        <time>2023-11-01T15:16:08Z</time>
      </trkpt>
      <trkpt lat="47.23874" lon="-1.71262">
        <ele>29</ele>
        <time>2023-11-01T15:17:32Z</time>
      </trkpt>
      <trkpt lat="47.2378" lon="-1.7115">
        <ele>34</ele>
        <time>2023-11-01T15:20:13Z</time>
      </trkpt>
      <trkpt lat="47.2373" lon="-1.71116">
        <ele>34</ele>
        <time>2023-11-01T15:21:26Z</time>
      </trkpt>
      <trkpt lat="47.23527" lon="-1.71157">
        <ele>33</ele>
        <time>2023-11-01T15:26:00Z</time>
      </trkpt>
      <trkpt lat="47.23499" lon="-1.71028">
        <ele>34</ele>
        <time>2023-11-01T15:28:03Z</time>
      </trkpt>
      <trkpt lat="47.23481" lon="-1.70953">
        <ele>35</ele>
        <time>2023-11-01T15:29:15Z</time>
      </trkpt>
      <trkpt lat="47.23482" lon="-1.70835">
        <ele>34</ele>
        <time>2023-11-01T15:31:02Z</time>
      </trkpt>
      <trkpt lat="47.23473" lon="-1.70747">
        <ele>34</ele>
        <time>2023-11-01T15:32:22Z</time>
      </trkpt>
      <trkpt lat="47.23386" lon="-1.7078">
        <ele>33</ele>
        <time>2023-11-01T15:34:22Z</time>
      </trkpt>
      <trkpt lat="47.23432" lon="-1.70557">
        <ele>35</ele>
        <time>2023-11-01T15:37:53Z</time>
      </trkpt>
      <trkpt lat="47.2365" lon="-1.70534">
        <ele>30</ele>
        <time>2023-11-01T15:42:45Z</time>
      </trkpt>
      <trkpt lat="47.236" lon="-1.70421">
        <ele>30</ele>
        <time>2023-11-01T15:44:47Z</time>
      </trkpt>
      <trkpt lat="47.23553" lon="-1.70322">
        <ele>30</ele>
        <time>2023-11-01T15:46:37Z</time>
      </trkpt>
      <trkpt lat="47.23493" lon="-1.7026">
        <ele>32</ele>
        <time>2023-11-01T15:48:14Z</time>
      </trkpt>
      <trkpt lat="47.23484" lon="-1.70177">
        <ele>31</ele>
        <time>2023-11-01T15:49:31Z</time>
      </trkpt>
      <trkpt lat="47.23471" lon="-1.70041">
        <ele>30</ele>
        <time>2023-11-01T15:51:35Z</time>
      </trkpt>
      <trkpt lat="47.23474" lon="-1.69967">
        <ele>29</ele>
        <time>2023-11-01T15:52:42Z</time>
      </trkpt>
      <trkpt lat="47.23556" lon="-1.69803">
        <ele>29</ele>
        <time>2023-11-01T15:55:47Z</time>
      </trkpt>
      <trkpt lat="47.23588" lon="-1.69744">
        <ele>33</ele>
        <time>2023-11-01T15:56:55Z</time>
      </trkpt>
      <trkpt lat="47.23522" lon="-1.69704">
        <ele>29</ele>
        <time>2023-11-01T15:58:30Z</time>
      </trkpt>
      <trkpt lat="47.23436" lon="-1.69674">
        <ele>27</ele>
        <time>2023-11-01T16:00:28Z</time>
      </trkpt>
      <trkpt lat="47.23392" lon="-1.69556">
        <ele>28</ele>
        <time>2023-11-01T16:02:30Z</time>
      </trkpt>
      <trkpt lat="47.23343" lon="-1.69458">
        <ele>24</ele>
        <time>2023-11-01T16:04:21Z</time>
      </trkpt>
      <trkpt lat="47.2331" lon="-1.69389">
        <ele>25</ele>
        <time>2023-11-01T16:05:37Z</time>
      </trkpt>
      <trkpt lat="47.23262" lon="-1.69364">
        <ele>28</ele>
        <time>2023-11-01T16:06:45Z</time>
      </trkpt>
      <trkpt lat="47.23246" lon="-1.69322">
        <ele>31</ele>
        <time>2023-11-01T16:07:29Z</time>
      </trkpt>
      <trkpt lat="47.23227" lon="-1.69249">
        <ele>35</ele>
        <time>2023-11-01T16:08:39Z</time>
      </trkpt>
      <trkpt lat="47.23182" lon="-1.69173">
        <ele>36</ele>
        <time>2023-11-01T16:10:11Z</time>
      </trkpt>
      <trkpt lat="47.23143" lon="-1.69116">
        <ele>37</ele>
        <time>2023-11-01T16:11:24Z</time>
      </trkpt>
      <trkpt lat="47.231" lon="-1.69015">
        <ele>40</ele>
        <time>2023-11-01T16:13:12Z</time>
      </trkpt>
      <trkpt lat="47.23246" lon="-1.69046">
        <ele>39</ele>
        <time>2023-11-01T16:16:29Z</time>
      </trkpt>
      <trkpt lat="47.23339" lon="-1.69046">
        <ele>39</ele>
        <time>2023-11-01T16:18:33Z</time>
      </trkpt>
      <trkpt lat="47.23417" lon="-1.69055">
        <ele>35</ele>
        <time>2023-11-01T16:20:18Z</time>
      </trkpt>
      <trkpt lat="47.23518" lon="-1.69076">
        <ele>32</ele>
        <time>2023-11-01T16:22:34Z</time>
      </trkpt>
      <trkpt lat="47.23576" lon="-1.69094">
        <ele>34</ele>
        <time>2023-11-01T16:23:53Z</time>
      </trkpt>
      <trkpt lat="47.23889" lon="-1.6948">
        <ele>40</ele>
        <time>2023-11-01T16:32:58Z</time>
      </trkpt>
      <trkpt lat="47.23967" lon="-1.69612">
        <ele>38</ele>
        <time>2023-11-01T16:35:36Z</time>
      </trkpt>
      <trkpt lat="47.24026" lon="-1.69791">
        <ele>40</ele>
        <time>2023-11-01T16:38:36Z</time>
      </trkpt>
      <trkpt lat="47.24053" lon="-1.6988">
        <ele>40</ele>
        <time>2023-11-01T16:40:05Z</time>
      </trkpt>
      <trkpt lat="47.24046" lon="-1.69906">
        <ele>40</ele>
        <time>2023-11-01T16:40:30Z</time>
      </trkpt>
      <trkpt lat="47.24088" lon="-1.70074">
        <ele>42</ele>
        <time>2023-11-01T16:43:12Z</time>
      </trkpt>
      <trkpt lat="47.24108" lon="-1.70172">
        <ele>43</ele>
        <time>2023-11-01T16:44:45Z</time>
      </trkpt>
      <trkpt lat="47.24127" lon="-1.70304">
        <ele>40</ele>
        <time>2023-11-01T16:46:47Z</time>
      </trkpt>
      <trkpt lat="47.24123" lon="-1.70408">
        <ele>38</ele>
        <time>2023-11-01T16:48:22Z</time>
      </trkpt>
      <trkpt lat="47.2411" lon="-1.70547">
        <ele>35</ele>
        <time>2023-11-01T16:50:29Z</time>
      </trkpt>
      <trkpt lat="47.24115" lon="-1.70643">
        <ele>33</ele>
        <time>2023-11-01T16:51:56Z</time>
      </trkpt>
      <trkpt lat="47.24074" lon="-1.70802">
        <ele>30</ele>
        <time>2023-11-01T16:54:30Z</time>
      </trkpt>
      <trkpt lat="47.24067" lon="-1.70923">
        <ele>27</ele>
        <time>2023-11-01T16:56:20Z</time>
      </trkpt>
      <trkpt lat="47.23966" lon="-1.71073">
        <ele>26</ele>
        <time>2023-11-01T16:59:31Z</time>
      </trkpt>
      <trkpt lat="47.23875" lon="-1.71288">
        <ele>29</ele>
        <time>2023-11-01T17:03:21Z</time>
      </trkpt>
      <trkpt lat="47.23844" lon="-1.71461">
        <ele>24</ele>
        <time>2023-11-01T17:06:03Z</time>
      </trkpt>
      <trkpt lat="47.23833" lon="-1.71588">
        <ele>22</ele>
        <time>2023-11-01T17:07:59Z</time>
      </trkpt>
      <trkpt lat="47.23813" lon="-1.71655">
        <ele>23</ele>
        <time>2023-11-01T17:09:05Z</time>
      </trkpt>
      <trkpt lat="47.23931" lon="-1.71612">
        <ele>21</ele>
        <time>2023-11-01T17:11:48Z</time>
      </trkpt>
      <trkpt lat="47.23971" lon="-1.71717">
        <ele>23</ele>
        <time>2023-11-01T17:13:37Z</time>
      </trkpt>
      <trkpt lat="47.23952" lon="-1.71972">
        <ele>28</ele>
        <time>2023-11-01T17:17:29Z</time>
      </trkpt>
      <trkpt lat="47.23881" lon="-1.72061">
        <ele>27</ele>
        <time>2023-11-01T17:19:34Z</time>
      </trkpt>
      <trkpt lat="47.23836" lon="-1.72084">
        <ele>26</ele>
        <time>2023-11-01T17:20:37Z</time>
      </trkpt>
      <trkpt lat="47.23745" lon="-1.72161">
        <ele>19</ele>
        <time>2023-11-01T17:22:57Z</time>
      </trkpt>
      <trkpt lat="47.23667" lon="-1.72241">
        <ele>14</ele>
        <time>2023-11-01T17:25:04Z</time>
      </trkpt>
      <trkpt lat="47.23528" lon="-1.72441">
        <ele>14</ele>
        <time>2023-11-01T17:29:23Z</time>
      </trkpt>
      <trkpt lat="47.23488" lon="-1.72336">
        <ele>15</ele>
        <time>2023-11-01T17:31:12Z</time>
      </trkpt>
      <trkpt lat="47.23462" lon="-1.72276">
        <ele>14</ele>
        <time>2023-11-01T17:32:17Z</time>
      </trkpt>
      <trkpt lat="47.23437" lon="-1.72198">
        <ele>14</ele>
        <time>2023-11-01T17:33:35Z</time>
      </trkpt>
      <trkpt lat="47.2342" lon="-1.72143">
        <ele>15</ele>
        <time>2023-11-01T17:34:30Z</time>
      </trkpt>
      <trkpt lat="47.23406" lon="-1.72101">
        <ele>15</ele>
        <time>2023-11-01T17:35:12Z</time>
      </trkpt>
    </trkseg>
  </trk>
  <trk>
    <name><![CDATA[Coueron_Naturalistes_18km-7354627]]></name>
    <extensions>
      <line xmlns="http://www.topografix.com/GPX/gpx_style/0/2">
        <color>00FF00</color>
        <width>4</width>
      </line>
    </extensions>
    <trkseg>
      <trkpt lat="47.20989" lon="-1.73134">
        <ele>6</ele>
        <time>2023-11-01T14:59:13Z</time>
      </trkpt>
      <trkpt lat="47.20932" lon="-1.72985">
        <ele>4</ele>
        <time>2023-11-01T15:01:48Z</time>
      </trkpt>
      <trkpt lat="47.20896" lon="-1.72886">
        <ele>4</ele>
        <time>2023-11-01T15:03:30Z</time>
      </trkpt>
      <trkpt lat="47.20906" lon="-1.72815">
        <ele>6</ele>
        <time>2023-11-01T15:04:36Z</time>
      </trkpt>
      <trkpt lat="47.20881" lon="-1.7277">
        <ele>5</ele>
        <time>2023-11-01T15:05:28Z</time>
      </trkpt>
      <trkpt lat="47.20871" lon="-1.7267">
        <ele>3</ele>
        <time>2023-11-01T15:07:00Z</time>
      </trkpt>
      <trkpt lat="47.2089" lon="-1.72614">
        <ele>5</ele>
        <time>2023-11-01T15:07:57Z</time>
      </trkpt>
      <trkpt lat="47.20831" lon="-1.71635">
        <ele>4</ele>
        <time>2023-11-01T15:22:48Z</time>
      </trkpt>
      <trkpt lat="47.20828" lon="-1.71318">
        <ele>4</ele>
        <time>2023-11-01T15:27:35Z</time>
      </trkpt>
      <trkpt lat="47.2096" lon="-1.71225">
        <ele>6</ele>
        <time>2023-11-01T15:30:50Z</time>
      </trkpt>
      <trkpt lat="47.21033" lon="-1.71088">
        <ele>7</ele>
        <time>2023-11-01T15:33:28Z</time>
      </trkpt>
      <trkpt lat="47.21283" lon="-1.70365">
        <ele>6</ele>
        <time>2023-11-01T15:45:44Z</time>
      </trkpt>
      <trkpt lat="47.21289" lon="-1.70271">
        <ele>8</ele>
        <time>2023-11-01T15:47:09Z</time>
      </trkpt>
      <trkpt lat="47.21372" lon="-1.70453">
        <ele>9</ele>
        <time>2023-11-01T15:50:28Z</time>
      </trkpt>
      <trkpt lat="47.21374" lon="-1.70612">
        <ele>14</ele>
        <time>2023-11-01T15:52:52Z</time>
      </trkpt>
      <trkpt lat="47.21344" lon="-1.70573">
        <ele>13</ele>
        <time>2023-11-01T15:53:45Z</time>
      </trkpt>
      <trkpt lat="47.21339" lon="-1.70522">
        <ele>11</ele>
        <time>2023-11-01T15:54:32Z</time>
      </trkpt>
      <trkpt lat="47.21382" lon="-1.70277">
        <ele>14</ele>
        <time>2023-11-01T15:58:21Z</time>
      </trkpt>
      <trkpt lat="47.21585" lon="-1.7018">
        <ele>27</ele>
        <time>2023-11-01T16:03:06Z</time>
      </trkpt>
      <trkpt lat="47.21637" lon="-1.70118">
        <ele>26</ele>
        <time>2023-11-01T16:04:36Z</time>
      </trkpt>
      <trkpt lat="47.21758" lon="-1.70058">
        <ele>22</ele>
        <time>2023-11-01T16:07:26Z</time>
      </trkpt>
      <trkpt lat="47.21876" lon="-1.69904">
        <ele>23</ele>
        <time>2023-11-01T16:10:56Z</time>
      </trkpt>
      <trkpt lat="47.21986" lon="-1.69794">
        <ele>24</ele>
        <time>2023-11-01T16:13:54Z</time>
      </trkpt>
      <trkpt lat="47.22062" lon="-1.6976">
        <ele>17</ele>
        <time>2023-11-01T16:15:40Z</time>
      </trkpt>
      <trkpt lat="47.22002" lon="-1.69979">
        <ele>8</ele>
        <time>2023-11-01T16:19:14Z</time>
      </trkpt>
      <trkpt lat="47.22056" lon="-1.702">
        <ele>3</ele>
        <time>2023-11-01T16:22:47Z</time>
      </trkpt>
      <trkpt lat="47.22069" lon="-1.70105">
        <ele>3</ele>
        <time>2023-11-01T16:24:15Z</time>
      </trkpt>
      <trkpt lat="47.22164" lon="-1.69942">
        <ele>5</ele>
        <time>2023-11-01T16:27:29Z</time>
      </trkpt>
      <trkpt lat="47.22266" lon="-1.69977">
        <ele>6</ele>
        <time>2023-11-01T16:29:49Z</time>
      </trkpt>
      <trkpt lat="47.22302" lon="-1.70041">
        <ele>6</ele>
        <time>2023-11-01T16:31:04Z</time>
      </trkpt>
      <trkpt lat="47.22435" lon="-1.70127">
        <ele>7</ele>
        <time>2023-11-01T16:34:18Z</time>
      </trkpt>
      <trkpt lat="47.22518" lon="-1.70258">
        <ele>6</ele>
        <time>2023-11-01T16:37:01Z</time>
      </trkpt>
      <trkpt lat="47.22566" lon="-1.70288">
        <ele>7</ele>
        <time>2023-11-01T16:38:10Z</time>
      </trkpt>
      <trkpt lat="47.22695" lon="-1.70296">
        <ele>6</ele>
        <time>2023-11-01T16:41:02Z</time>
      </trkpt>
      <trkpt lat="47.22672" lon="-1.69919">
        <ele>7</ele>
        <time>2023-11-01T16:46:45Z</time>
      </trkpt>
      <trkpt lat="47.22888" lon="-1.69784">
        <ele>18</ele>
        <time>2023-11-01T16:51:59Z</time>
      </trkpt>
      <trkpt lat="47.22803" lon="-1.69623">
        <ele>16</ele>
        <time>2023-11-01T16:55:03Z</time>
      </trkpt>
      <trkpt lat="47.22993" lon="-1.69402">
        <ele>34</ele>
        <time>2023-11-01T17:00:26Z</time>
      </trkpt>
      <trkpt lat="47.23047" lon="-1.69232">
        <ele>35</ele>
        <time>2023-11-01T17:03:17Z</time>
      </trkpt>
      <trkpt lat="47.23138" lon="-1.69101">
        <ele>38</ele>
        <time>2023-11-01T17:06:06Z</time>
      </trkpt>
      <trkpt lat="47.23232" lon="-1.69256">
        <ele>35</ele>
        <time>2023-11-01T17:09:15Z</time>
      </trkpt>
      <trkpt lat="47.23267" lon="-1.69361">
        <ele>28</ele>
        <time>2023-11-01T17:11:01Z</time>
      </trkpt>
      <trkpt lat="47.23347" lon="-1.6944">
        <ele>25</ele>
        <time>2023-11-01T17:13:09Z</time>
      </trkpt>
      <trkpt lat="47.23444" lon="-1.69657">
        <ele>28</ele>
        <time>2023-11-01T17:17:05Z</time>
      </trkpt>
      <trkpt lat="47.23589" lon="-1.69741">
        <ele>33</ele>
        <time>2023-11-01T17:20:33Z</time>
      </trkpt>
      <trkpt lat="47.23645" lon="-1.69623">
        <ele>35</ele>
        <time>2023-11-01T17:22:43Z</time>
      </trkpt>
      <trkpt lat="47.2374" lon="-1.69545">
        <ele>38</ele>
        <time>2023-11-01T17:25:08Z</time>
      </trkpt>
      <trkpt lat="47.23877" lon="-1.69477">
        <ele>40</ele>
        <time>2023-11-01T17:28:21Z</time>
      </trkpt>
      <trkpt lat="47.23973" lon="-1.69633">
        <ele>38</ele>
        <time>2023-11-01T17:31:32Z</time>
      </trkpt>
      <trkpt lat="47.24048" lon="-1.69912">
        <ele>40</ele>
        <time>2023-11-01T17:36:04Z</time>
      </trkpt>
      <trkpt lat="47.24126" lon="-1.70303">
        <ele>40</ele>
        <time>2023-11-01T17:42:13Z</time>
      </trkpt>
      <trkpt lat="47.24104" lon="-1.70706">
        <ele>32</ele>
        <time>2023-11-01T17:48:19Z</time>
      </trkpt>
      <trkpt lat="47.24066" lon="-1.70824">
        <ele>29</ele>
        <time>2023-11-01T17:50:18Z</time>
      </trkpt>
      <trkpt lat="47.24066" lon="-1.70923">
        <ele>27</ele>
        <time>2023-11-01T17:51:47Z</time>
      </trkpt>
      <trkpt lat="47.23959" lon="-1.71069">
        <ele>27</ele>
        <time>2023-11-01T17:55:02Z</time>
      </trkpt>
      <trkpt lat="47.23896" lon="-1.7129">
        <ele>28</ele>
        <time>2023-11-01T17:58:39Z</time>
      </trkpt>
      <trkpt lat="47.23858" lon="-1.71316">
        <ele>28</ele>
        <time>2023-11-01T17:59:35Z</time>
      </trkpt>
      <trkpt lat="47.23849" lon="-1.71425">
        <ele>26</ele>
        <time>2023-11-01T18:01:14Z</time>
      </trkpt>
      <trkpt lat="47.23645" lon="-1.71504">
        <ele>32</ele>
        <time>2023-11-01T18:05:56Z</time>
      </trkpt>
      <trkpt lat="47.23508" lon="-1.71571">
        <ele>27</ele>
        <time>2023-11-01T18:09:09Z</time>
      </trkpt>
      <trkpt lat="47.23405" lon="-1.71852">
        <ele>21</ele>
        <time>2023-11-01T18:13:58Z</time>
      </trkpt>
      <trkpt lat="47.23412" lon="-1.72082">
        <ele>16</ele>
        <time>2023-11-01T18:17:27Z</time>
      </trkpt>
      <trkpt lat="47.23224" lon="-1.72176">
        <ele>15</ele>
        <time>2023-11-01T18:21:51Z</time>
      </trkpt>
      <trkpt lat="47.23307" lon="-1.72635">
        <ele>12</ele>
        <time>2023-11-01T18:29:02Z</time>
      </trkpt>
      <trkpt lat="47.23452" lon="-1.73212">
        <ele>16</ele>
        <time>2023-11-01T18:38:19Z</time>
      </trkpt>
      <trkpt lat="47.23485" lon="-1.73313">
        <ele>12</ele>
        <time>2023-11-01T18:40:01Z</time>
      </trkpt>
      <trkpt lat="47.2349" lon="-1.73631">
        <ele>6</ele>
        <time>2023-11-01T18:44:49Z</time>
      </trkpt>
      <trkpt lat="47.2351" lon="-1.73715">
        <ele>5</ele>
        <time>2023-11-01T18:46:10Z</time>
      </trkpt>
      <trkpt lat="47.23414" lon="-1.73858">
        <ele>5</ele>
        <time>2023-11-01T18:49:12Z</time>
      </trkpt>
      <trkpt lat="47.23366" lon="-1.74054">
        <ele>7</ele>
        <time>2023-11-01T18:52:21Z</time>
      </trkpt>
      <trkpt lat="47.23264" lon="-1.74238">
        <ele>10</ele>
        <time>2023-11-01T18:55:56Z</time>
      </trkpt>
      <trkpt lat="47.23227" lon="-1.74219">
        <ele>10</ele>
        <time>2023-11-01T18:56:48Z</time>
      </trkpt>
      <trkpt lat="47.23168" lon="-1.74341">
        <ele>9</ele>
        <time>2023-11-01T18:59:04Z</time>
      </trkpt>
      <trkpt lat="47.23077" lon="-1.74418">
        <ele>5</ele>
        <time>2023-11-01T19:01:24Z</time>
      </trkpt>
      <trkpt lat="47.23039" lon="-1.74556">
        <ele>4</ele>
        <time>2023-11-01T19:03:39Z</time>
      </trkpt>
      <trkpt lat="47.22856" lon="-1.74586">
        <ele>6</ele>
        <time>2023-11-01T19:07:45Z</time>
      </trkpt>
      <trkpt lat="47.2285" lon="-1.7471">
        <ele>6</ele>
        <time>2023-11-01T19:09:37Z</time>
      </trkpt>
      <trkpt lat="47.22668" lon="-1.74974">
        <ele>9</ele>
        <time>2023-11-01T19:15:18Z</time>
      </trkpt>
      <trkpt lat="47.22602" lon="-1.75013">
        <ele>7</ele>
        <time>2023-11-01T19:16:53Z</time>
      </trkpt>
      <trkpt lat="47.22596" lon="-1.75054">
        <ele>6</ele>
        <time>2023-11-01T19:17:31Z</time>
      </trkpt>
      <trkpt lat="47.2256" lon="-1.75058">
        <ele>6</ele>
        <time>2023-11-01T19:18:19Z</time>
      </trkpt>
      <trkpt lat="47.22563" lon="-1.74923">
        <ele>8</ele>
        <time>2023-11-01T19:20:22Z</time>
      </trkpt>
      <trkpt lat="47.22414" lon="-1.74599">
        <ele>11</ele>
        <time>2023-11-01T19:26:16Z</time>
      </trkpt>
      <trkpt lat="47.22344" lon="-1.74298">
        <ele>11</ele>
        <time>2023-11-01T19:31:05Z</time>
      </trkpt>
      <trkpt lat="47.22258" lon="-1.74275">
        <ele>10</ele>
        <time>2023-11-01T19:33:01Z</time>
      </trkpt>
      <trkpt lat="47.22236" lon="-1.74221">
        <ele>10</ele>
        <time>2023-11-01T19:33:58Z</time>
      </trkpt>
      <trkpt lat="47.22099" lon="-1.74262">
        <ele>11</ele>
        <time>2023-11-01T19:37:05Z</time>
      </trkpt>
      <trkpt lat="47.2189" lon="-1.74356">
        <ele>8</ele>
        <time>2023-11-01T19:41:57Z</time>
      </trkpt>
      <trkpt lat="47.21863" lon="-1.74401">
        <ele>9</ele>
        <time>2023-11-01T19:42:51Z</time>
      </trkpt>
      <trkpt lat="47.21732" lon="-1.74511">
        <ele>12</ele>
        <time>2023-11-01T19:46:12Z</time>
      </trkpt>
      <trkpt lat="47.21655" lon="-1.74665">
        <ele>12</ele>
        <time>2023-11-01T19:49:06Z</time>
      </trkpt>
      <trkpt lat="47.21541" lon="-1.74826">
        <ele>8</ele>
        <time>2023-11-01T19:52:36Z</time>
      </trkpt>
      <trkpt lat="47.21442" lon="-1.74944">
        <ele>5</ele>
        <time>2023-11-01T19:55:26Z</time>
      </trkpt>
      <trkpt lat="47.21231" lon="-1.74539">
        <ele>11</ele>
        <time>2023-11-01T20:03:09Z</time>
      </trkpt>
      <trkpt lat="47.2114" lon="-1.74753">
        <ele>15</ele>
        <time>2023-11-01T20:06:58Z</time>
      </trkpt>
      <trkpt lat="47.21215" lon="-1.75234">
        <ele>11</ele>
        <time>2023-11-01T20:14:25Z</time>
      </trkpt>
      <trkpt lat="47.21159" lon="-1.75393">
        <ele>6</ele>
        <time>2023-11-01T20:17:08Z</time>
      </trkpt>
      <trkpt lat="47.21113" lon="-1.753">
        <ele>6</ele>
        <time>2023-11-01T20:18:52Z</time>
      </trkpt>
      <trkpt lat="47.21035" lon="-1.75257">
        <ele>6</ele>
        <time>2023-11-01T20:20:43Z</time>
      </trkpt>
      <trkpt lat="47.20929" lon="-1.75107">
        <ele>6</ele>
        <time>2023-11-01T20:23:59Z</time>
      </trkpt>
      <trkpt lat="47.20947" lon="-1.74873">
        <ele>9</ele>
        <time>2023-11-01T20:27:33Z</time>
      </trkpt>
      <trkpt lat="47.21009" lon="-1.74386">
        <ele>4</ele>
        <time>2023-11-01T20:35:02Z</time>
      </trkpt>
      <trkpt lat="47.21184" lon="-1.74073">
        <ele>5</ele>
        <time>2023-11-01T20:41:09Z</time>
      </trkpt>
      <trkpt lat="47.2112" lon="-1.73622">
        <ele>4</ele>
        <time>2023-11-01T20:48:07Z</time>
      </trkpt>
      <trkpt lat="47.21139" lon="-1.7321">
        <ele>6</ele>
        <time>2023-11-01T20:54:21Z</time>
      </trkpt>
      <trkpt lat="47.21047" lon="-1.7326">
        <ele>5</ele>
        <time>2023-11-01T20:56:32Z</time>
      </trkpt>
      <trkpt lat="47.21024" lon="-1.73144">
        <ele>6</ele>
        <time>2023-11-01T20:58:22Z</time>
      </trkpt>
      <trkpt lat="47.20967" lon="-1.73114">
        <ele>5</ele>
        <time>2023-11-01T20:59:43Z</time>
      </trkpt>
    </trkseg>
  </trk>
</gpx>